createdAt,value
2019-04-22T00:02:00.476Z,14.77
2019-04-22T00:02:55.841Z,14.73
2019-04-22T00:04:57.084Z,14.73
2019-04-22T00:06:09.894Z,14.68
2019-04-22T00:08:03.461Z,14.69
2019-04-22T00:09:04.043Z,14.60
2019-04-22T00:10:55.799Z,14.63
2019-04-22T00:12:00.383Z,14.51
2019-04-22T00:13:52.018Z,14.54
2019-04-22T00:14:42.540Z,14.51
2019-04-22T00:16:50.347Z,14.51
2019-04-22T00:17:48.586Z,14.44
2019-04-22T00:19:36.015Z,14.58
2019-04-22T00:20:38.469Z,14.53
2019-04-22T00:22:27.730Z,14.50
2019-04-22T00:23:23.477Z,14.40
2019-04-22T00:25:31.043Z,14.33
2019-04-22T00:26:23.947Z,14.32
2019-04-22T00:28:17.285Z,14.37
2019-04-22T00:29:40.769Z,14.40
2019-04-22T00:31:09.823Z,14.32
2019-04-22T00:32:05.520Z,14.40
2019-04-22T00:33:57.660Z,14.41
2019-04-22T00:34:59.045Z,14.40
2019-04-22T00:36:52.650Z,14.43
2019-04-22T00:37:59.800Z,14.41
2019-04-22T00:39:46.613Z,14.37
2019-04-22T00:40:44.933Z,14.37
2019-04-22T00:42:41.586Z,14.30
2019-04-22T00:43:42.179Z,14.28
2019-04-22T00:45:33.306Z,14.23
2019-04-22T00:46:36.107Z,14.20
2019-04-22T00:48:27.519Z,14.18
2019-04-22T00:51:22.599Z,14.18
2019-04-22T00:52:18.247Z,14.11
2019-04-22T00:54:08.576Z,14.17
2019-04-22T00:55:12.050Z,14.17
2019-04-22T00:57:02.819Z,14.12
2019-04-22T00:58:06.254Z,14.08
2019-04-22T01:00:01.022Z,14.04
2019-04-22T01:01:05.510Z,14.03
2019-04-22T01:02:54.404Z,14.07
2019-04-22T01:03:58.477Z,14.05
2019-04-22T01:05:40.392Z,14.03
2019-04-22T01:06:41.401Z,13.99
2019-04-22T01:08:40.991Z,14.07
2019-04-22T01:09:40.150Z,14.05
2019-04-22T01:11:29.129Z,14.04
2019-04-22T01:12:31.935Z,13.97
2019-04-22T01:14:21.665Z,13.87
2019-04-22T01:15:23.634Z,13.95
2019-04-22T01:17:12.072Z,13.93
2019-04-22T01:18:13.243Z,13.89
2019-04-22T01:20:24.600Z,13.83
2019-04-22T01:21:17.782Z,13.90
2019-04-22T01:22:58.934Z,13.89
2019-04-22T01:23:58.837Z,13.87
2019-04-22T01:25:55.224Z,13.87
2019-04-22T01:26:52.326Z,13.79
2019-04-22T01:28:35.469Z,13.78
2019-04-22T01:29:37.560Z,13.81
2019-04-22T01:31:20.447Z,13.81
2019-04-22T01:32:26.315Z,13.79
2019-04-22T01:34:24.698Z,13.71
2019-04-22T01:35:27.491Z,13.70
2019-04-22T01:37:20.270Z,13.75
2019-04-22T01:38:21.173Z,13.68
2019-04-22T01:40:25.381Z,13.63
2019-04-22T01:41:26.629Z,13.67
2019-04-22T01:43:16.885Z,13.59
2019-04-22T01:46:08.549Z,13.57
2019-04-22T01:48:59.965Z,13.57
2019-04-22T01:50:03.884Z,13.54
2019-04-22T01:53:00.928Z,13.59
2019-04-22T01:54:48.491Z,13.53
2019-04-22T01:55:46.962Z,13.35
2019-04-22T01:57:35.286Z,13.53
2019-04-22T01:58:33.246Z,13.38
2019-04-22T02:00:35.893Z,13.52
2019-04-22T02:01:39.092Z,13.41
2019-04-22T02:03:26.403Z,13.42
2019-04-22T02:04:32.502Z,13.41
2019-04-22T02:06:23.426Z,13.42
2019-04-22T02:07:16.802Z,13.42
2019-04-22T02:09:17.468Z,13.37
2019-04-22T02:10:11.192Z,13.37
2019-04-22T02:12:05.944Z,13.23
2019-04-22T02:13:06.991Z,13.23
2019-04-22T02:15:00.748Z,13.22
2019-04-22T02:16:03.527Z,13.15
2019-04-22T02:17:58.040Z,13.30
2019-04-22T02:18:52.407Z,13.19
2019-04-22T02:20:43.096Z,13.13
2019-04-22T02:21:42.779Z,13.15
2019-04-22T02:24:42.104Z,13.15
2019-04-22T02:27:35.477Z,13.08
2019-04-22T02:29:26.357Z,13.00
2019-04-22T02:30:22.470Z,13.03
2019-04-22T02:32:28.181Z,13.16
2019-04-22T02:33:44.038Z,13.16
2019-04-22T02:35:29.152Z,13.15
2019-04-22T02:38:19.477Z,13.12
2019-04-22T02:39:17.915Z,12.97
2019-04-22T02:41:22.755Z,12.98
2019-04-22T02:42:03.212Z,13.03
2019-04-22T02:44:53.585Z,12.97
2019-04-22T02:47:08.450Z,12.97
2019-04-22T02:47:47.584Z,12.91
2019-04-22T02:49:39.157Z,13.01
2019-04-22T02:50:37.295Z,12.93
2019-04-22T02:54:00.537Z,12.94
2019-04-22T02:55:23.643Z,12.87
2019-04-22T02:56:31.508Z,12.93
2019-04-22T02:58:27.694Z,12.93
2019-04-22T02:59:14.136Z,12.91
2019-04-22T03:02:12.000Z,12.90
2019-04-22T03:08:06.618Z,12.90
2019-04-22T03:09:47.454Z,12.85
2019-04-22T03:15:45.781Z,12.90
2019-04-22T03:18:38.369Z,12.82
2019-04-22T03:19:50.445Z,12.79
2019-04-22T03:21:23.977Z,12.79
2019-04-22T03:22:26.469Z,12.73
2019-04-22T03:24:23.940Z,12.75
2019-04-22T03:27:08.090Z,12.65
2019-04-22T03:28:08.590Z,12.64
2019-04-22T03:30:36.660Z,12.50
2019-04-22T03:31:03.630Z,12.50
2019-04-22T03:33:11.081Z,12.54
2019-04-22T03:34:39.176Z,12.54
2019-04-22T03:37:09.461Z,12.50
2019-04-22T03:39:12.781Z,12.42
2019-04-22T03:41:54.071Z,12.45
2019-04-22T03:42:32.689Z,12.39
2019-04-22T03:44:52.115Z,12.50
2019-04-22T03:45:42.694Z,12.50
2019-04-22T03:48:16.260Z,12.53
2019-04-22T03:50:22.037Z,12.46
2019-04-22T03:51:33.767Z,12.46
2019-04-22T03:53:09.749Z,12.43
2019-04-22T03:54:19.318Z,12.45
2019-04-22T03:56:15.578Z,12.40
2019-04-22T03:59:05.096Z,12.39
2019-04-22T04:02:01.869Z,12.43
2019-04-22T04:04:37.206Z,12.37
2019-04-22T04:08:33.413Z,12.35
2019-04-22T04:11:38.568Z,12.21
2019-04-22T04:13:20.542Z,12.21
2019-04-22T04:14:47.107Z,12.21
2019-04-22T04:16:10.817Z,12.20
2019-04-22T04:20:15.831Z,12.24
2019-04-22T04:21:57.811Z,12.17
2019-04-22T04:23:17.061Z,12.00
2019-04-22T04:25:14.767Z,12.06
2019-04-22T04:30:31.628Z,12.15
2019-04-22T04:33:36.246Z,12.09
2019-04-22T04:36:32.189Z,12.09
2019-04-22T04:37:40.718Z,12.02
2019-04-22T04:39:15.092Z,12.04
2019-04-22T04:42:32.498Z,12.07
2019-04-22T04:43:10.003Z,12.07
2019-04-22T04:46:06.888Z,12.00
2019-04-22T04:47:54.680Z,12.03
2019-04-22T04:51:00.424Z,11.95
2019-04-22T04:51:47.186Z,12.07
2019-04-22T04:53:41.460Z,12.21
2019-04-22T04:54:50.413Z,12.20
2019-04-22T04:56:38.525Z,12.12
2019-04-22T04:57:43.518Z,12.24
2019-04-22T04:59:41.407Z,12.20
2019-04-22T05:06:22.208Z,12.27
2019-04-22T05:08:05.654Z,12.35
2019-04-22T05:09:15.089Z,12.32
2019-04-22T05:11:10.877Z,12.46
2019-04-22T05:12:12.288Z,12.43
2019-04-22T05:13:59.185Z,12.54
2019-04-22T05:14:57.767Z,12.50
2019-04-22T05:16:49.454Z,12.57
2019-04-22T05:19:32.334Z,12.65
2019-04-22T05:20:53.189Z,12.62
2019-04-22T05:23:30.452Z,12.76
2019-04-22T05:25:36.865Z,12.80
2019-04-22T05:28:10.393Z,12.94
2019-04-22T05:31:08.587Z,12.98
2019-04-22T05:32:01.571Z,13.09
2019-04-22T05:35:00.450Z,13.19
2019-04-22T05:36:52.823Z,13.25
2019-04-22T05:37:56.516Z,13.28
2019-04-22T05:39:45.378Z,13.38
2019-04-22T05:40:40.771Z,13.47
2019-04-22T05:42:34.206Z,13.53
2019-04-22T05:43:47.849Z,13.60
2019-04-22T05:45:49.440Z,13.65
2019-04-22T05:46:28.336Z,13.68
2019-04-22T05:48:24.306Z,13.77
2019-04-22T05:49:23.511Z,13.85
2019-04-22T05:51:21.773Z,13.97
2019-04-22T05:52:17.279Z,14.03
2019-04-22T05:54:14.711Z,14.07
2019-04-22T05:55:14.390Z,14.07
2019-04-22T05:57:04.031Z,14.17
2019-04-22T05:58:02.837Z,14.18
2019-04-22T06:00:01.234Z,14.36
2019-04-22T06:01:21.805Z,14.40
2019-04-22T06:02:53.020Z,14.55
2019-04-22T06:03:58.753Z,14.59
2019-04-22T06:05:41.748Z,14.73
2019-04-22T06:06:45.275Z,14.94
2019-04-22T06:08:40.173Z,15.19
2019-04-22T06:09:32.288Z,15.36
2019-04-22T06:12:20.832Z,15.77
2019-04-22T06:14:20.347Z,16.21
2019-04-22T06:15:19.461Z,16.46
2019-04-22T06:17:18.331Z,16.96
2019-04-22T06:20:13.725Z,18.10
2019-04-22T06:21:11.213Z,18.62
2019-04-22T06:23:04.124Z,19.51
2019-04-22T06:24:05.204Z,20.09
2019-04-22T06:28:48.136Z,21.82
2019-04-22T06:32:05.513Z,22.80
2019-04-22T06:32:42.105Z,23.06
2019-04-22T06:34:35.846Z,24.10
2019-04-22T06:35:54.590Z,24.84
2019-04-22T06:37:24.843Z,25.70
2019-04-22T06:38:40.425Z,26.07
2019-04-22T06:40:23.698Z,26.22
2019-04-22T06:41:25.341Z,26.44
2019-04-22T06:46:09.881Z,24.57
2019-04-22T06:47:10.514Z,24.55
2019-04-22T06:49:04.791Z,24.70
2019-04-22T06:49:59.199Z,24.51
2019-04-22T06:51:53.742Z,25.59
2019-04-22T06:52:54.617Z,26.09
2019-04-22T06:54:51.189Z,25.53
2019-04-22T06:55:46.980Z,25.58
2019-04-22T06:57:41.718Z,25.80
2019-04-22T06:58:42.575Z,26.19
2019-04-22T07:00:35.118Z,27.42
2019-04-22T07:04:25.638Z,26.07
2019-04-22T07:06:20.076Z,26.41
2019-04-22T07:07:18.680Z,26.52
2019-04-22T07:10:22.190Z,27.63
2019-04-22T07:12:06.408Z,26.96
2019-04-22T07:13:01.515Z,26.52
2019-04-22T07:14:53.407Z,26.73
2019-04-22T07:16:13.354Z,27.63
2019-04-22T07:17:49.239Z,28.88
2019-04-22T07:18:48.413Z,28.59
2019-04-22T07:20:47.263Z,26.16
2019-04-22T07:21:45.250Z,26.00
2019-04-22T07:26:24.757Z,26.88
2019-04-22T07:27:27.575Z,27.25
2019-04-22T07:29:18.990Z,26.22
2019-04-22T07:30:24.975Z,26.28
2019-04-22T07:32:13.132Z,26.23
2019-04-22T07:33:32.366Z,26.05
2019-04-22T07:38:04.686Z,26.43
2019-04-22T07:38:56.536Z,26.58
2019-04-22T07:40:56.281Z,27.90
2019-04-22T07:41:51.360Z,28.74
2019-04-22T07:43:59.836Z,29.08
2019-04-22T07:44:53.224Z,28.72
2019-04-22T07:46:43.073Z,28.63
2019-04-22T07:48:02.677Z,28.33
2019-04-22T07:49:39.105Z,28.27
2019-04-22T07:50:49.351Z,28.02
2019-04-22T07:52:31.875Z,27.90
2019-04-22T07:53:22.588Z,28.44
2019-04-22T07:55:12.026Z,28.14
2019-04-22T07:56:21.393Z,28.82
2019-04-22T07:58:16.967Z,28.38
2019-04-22T07:59:15.535Z,28.91
2019-04-22T08:01:10.191Z,29.72
2019-04-22T08:02:02.106Z,28.57
2019-04-22T08:06:58.829Z,30.83
2019-04-22T08:07:52.478Z,30.21
2019-04-22T08:09:55.719Z,28.93
2019-04-22T08:12:38.595Z,28.01
2019-04-22T08:13:36.632Z,28.05
2019-04-22T08:15:32.353Z,28.62
2019-04-22T08:16:30.625Z,28.52
2019-04-22T08:18:28.985Z,28.20
2019-04-22T08:21:19.312Z,30.08
2019-04-22T08:22:14.326Z,29.66
2019-04-22T08:24:17.962Z,29.05
2019-04-22T08:25:06.884Z,29.53
2019-04-22T08:27:07.729Z,29.95
2019-04-22T08:28:03.329Z,30.02
2019-04-22T08:30:14.472Z,29.02
2019-04-22T08:31:04.786Z,28.84
2019-04-22T08:34:00.592Z,27.80
2019-04-22T08:36:00.669Z,28.66
2019-04-22T08:36:54.019Z,29.20
2019-04-22T08:38:39.544Z,30.32
2019-04-22T08:39:35.882Z,30.87
2019-04-22T08:41:32.701Z,29.19
2019-04-22T08:43:36.668Z,29.02
2019-04-22T08:44:27.840Z,30.13
2019-04-22T08:45:25.039Z,29.42
2019-04-22T08:47:19.129Z,29.24
2019-04-22T08:48:18.611Z,28.66
2019-04-22T08:50:18.501Z,28.27
2019-04-22T08:51:08.806Z,28.48
2019-04-22T08:53:05.753Z,29.16
2019-04-22T08:56:07.705Z,29.90
2019-04-22T08:56:49.355Z,30.09
2019-04-22T08:58:50.228Z,28.78
2019-04-22T08:59:49.002Z,28.78
2019-04-22T09:01:40.808Z,28.63
2019-04-22T09:04:31.260Z,27.68
2019-04-22T09:05:53.574Z,27.48
2019-04-22T09:07:29.154Z,27.93
2019-04-22T09:08:34.212Z,27.74
2019-04-22T09:10:28.323Z,27.95
2019-04-22T09:11:26.945Z,27.55
2019-04-22T09:13:05.839Z,27.29
2019-04-22T09:14:15.629Z,27.08
2019-04-22T09:16:13.137Z,26.90
2019-04-22T09:17:13.671Z,26.16
2019-04-22T09:18:59.246Z,24.65
2019-04-22T09:20:00.091Z,24.08
2019-04-22T09:21:56.390Z,23.77
2019-04-22T09:22:56.806Z,23.56
2019-04-22T09:24:48.617Z,23.66
2019-04-22T09:26:02.932Z,23.63
2019-04-22T09:28:44.725Z,23.62
2019-04-22T09:30:34.475Z,23.55
2019-04-22T09:31:33.746Z,23.46
2019-04-22T09:33:27.142Z,23.77
2019-04-22T09:34:32.109Z,23.83
2019-04-22T09:36:22.647Z,24.24
2019-04-22T09:37:31.815Z,24.32
2019-04-22T09:39:17.355Z,24.05
2019-04-22T09:42:05.102Z,24.06
2019-04-22T09:43:08.078Z,24.01
2019-04-22T09:44:55.524Z,24.01
2019-04-22T09:46:04.391Z,24.17
2019-04-22T09:47:55.345Z,24.11
2019-04-22T09:48:50.216Z,23.95
2019-04-22T09:50:48.028Z,23.99
2019-04-22T09:51:48.533Z,23.84
2019-04-22T09:53:41.709Z,23.96
2019-04-22T09:54:49.250Z,24.20
2019-04-22T09:56:32.174Z,24.38
2019-04-22T09:59:22.707Z,24.68
2019-04-22T10:00:13.954Z,24.53
2019-04-22T10:02:25.016Z,24.43
2019-04-22T10:03:20.372Z,24.13
2019-04-22T10:06:16.488Z,24.21
2019-04-22T10:08:06.692Z,24.43
2019-04-22T10:11:00.901Z,24.73
2019-04-22T10:11:58.603Z,24.80
2019-04-22T10:13:54.077Z,24.70
2019-04-22T10:14:51.114Z,24.65
2019-04-22T10:16:45.303Z,24.57
2019-04-22T10:17:47.403Z,24.68
2019-04-22T10:19:37.227Z,24.86
2019-04-22T10:20:27.090Z,24.93
2019-04-22T10:22:32.539Z,24.63
2019-04-22T10:23:31.562Z,24.51
2019-04-22T10:25:26.405Z,24.51
2019-04-22T10:26:23.567Z,24.39
2019-04-22T10:28:14.732Z,24.40
2019-04-22T10:31:17.126Z,24.51
2019-04-22T10:32:06.855Z,24.57
2019-04-22T10:33:49.491Z,24.36
2019-04-22T10:34:40.870Z,24.36
2019-04-22T10:36:27.825Z,24.58
2019-04-22T10:37:28.160Z,24.48
2019-04-22T10:39:20.444Z,24.28
2019-04-22T10:40:21.624Z,24.32
2019-04-22T10:42:13.443Z,24.48
2019-04-22T10:43:14.905Z,24.43
2019-04-22T10:45:08.076Z,24.51
2019-04-22T10:46:06.472Z,24.51
2019-04-22T10:48:01.379Z,24.47
2019-04-22T10:48:59.996Z,24.68
2019-04-22T10:50:52.739Z,24.55
2019-04-22T10:51:52.927Z,24.53
2019-04-22T10:53:47.072Z,24.57
2019-04-22T10:54:47.274Z,24.45
2019-04-22T10:56:39.017Z,24.45
2019-04-22T10:57:39.052Z,24.54
2019-04-22T10:59:32.291Z,24.39
2019-04-22T11:00:31.807Z,24.51
2019-04-22T11:02:25.655Z,24.66
2019-04-22T11:03:24.865Z,24.70
2019-04-22T11:05:17.893Z,24.68
2019-04-22T11:06:19.173Z,24.57
2019-04-22T11:08:20.388Z,24.54
2019-04-22T11:09:12.368Z,24.63
2019-04-22T11:11:16.084Z,24.84
2019-04-22T11:12:09.916Z,24.66
2019-04-22T11:13:58.029Z,24.68
2019-04-22T11:14:58.182Z,24.65
2019-04-22T11:16:50.190Z,24.42
2019-04-22T11:17:51.362Z,24.39
2019-04-22T11:19:43.600Z,24.55
2019-04-22T11:20:43.999Z,24.55
2019-04-22T11:22:37.362Z,24.68
2019-04-22T11:23:36.619Z,24.48
2019-04-22T11:25:29.992Z,24.29
2019-04-22T11:26:30.201Z,24.30
2019-04-22T11:28:23.376Z,24.53
2019-04-22T11:29:23.750Z,24.60
2019-04-22T11:31:16.575Z,24.53
2019-04-22T11:32:15.511Z,24.66
2019-04-22T11:34:08.932Z,24.50
2019-04-22T11:35:09.900Z,24.57
2019-04-22T11:37:03.162Z,24.61
2019-04-22T11:38:01.655Z,24.58
2019-04-22T11:40:09.156Z,24.33
2019-04-22T11:40:56.272Z,24.38
2019-04-22T11:42:48.338Z,24.65
2019-04-22T11:43:49.445Z,24.54
2019-04-22T11:45:41.683Z,24.54
2019-04-22T11:46:41.341Z,24.54
2019-04-22T11:48:34.353Z,24.32
2019-04-22T11:49:34.402Z,24.50
2019-04-22T11:51:27.606Z,24.35
2019-04-22T11:52:28.713Z,24.48
2019-04-22T11:54:21.060Z,24.70
2019-04-22T11:55:20.520Z,24.74
2019-04-22T11:57:14.933Z,24.81
2019-04-22T11:58:14.888Z,24.84
2019-04-22T12:00:07.148Z,24.85
2019-04-22T12:01:06.707Z,24.96
2019-04-22T12:03:00.841Z,24.84
2019-04-22T12:03:59.993Z,24.66
2019-04-22T12:05:52.692Z,24.91
2019-04-22T12:06:54.029Z,24.92
2019-04-22T12:08:45.988Z,24.66
2019-04-22T12:09:45.953Z,24.70
2019-04-22T12:11:38.868Z,24.66
2019-04-22T12:12:39.687Z,24.76
2019-04-22T12:14:31.958Z,24.70
2019-04-22T12:15:32.962Z,24.77
2019-04-22T12:17:26.310Z,24.47
2019-04-22T12:18:25.045Z,24.66
2019-04-22T12:20:18.453Z,24.35
2019-04-22T12:21:19.381Z,24.40
2019-04-22T12:23:11.392Z,24.42
2019-04-22T12:24:11.138Z,24.39
2019-04-22T12:26:10.816Z,24.47
2019-04-22T12:27:04.327Z,24.53
2019-04-22T12:28:59.219Z,24.61
2019-04-22T12:29:58.733Z,24.74
2019-04-22T12:31:51.460Z,24.80
2019-04-22T12:32:50.830Z,24.77
2019-04-22T12:34:44.358Z,24.84
2019-04-22T12:35:44.476Z,24.54
2019-04-22T12:37:45.757Z,24.45
2019-04-22T12:38:37.785Z,24.51
2019-04-22T12:40:40.873Z,24.18
2019-04-22T12:41:31.113Z,24.35
2019-04-22T12:43:24.596Z,24.55
2019-04-22T12:44:24.418Z,24.53
2019-04-22T12:46:18.511Z,24.39
2019-04-22T12:47:18.162Z,24.39
2019-04-22T12:49:12.175Z,24.48
2019-04-22T12:50:18.682Z,24.48
2019-04-22T12:52:05.178Z,24.61
2019-04-22T12:53:10.415Z,24.55
2019-04-22T12:54:57.393Z,24.73
2019-04-22T12:55:59.312Z,24.50
2019-04-22T12:57:53.459Z,24.50
2019-04-22T12:58:51.647Z,24.50
2019-04-22T13:00:44.599Z,24.42
2019-04-22T13:01:44.660Z,24.47
2019-04-22T13:03:36.500Z,24.51
2019-04-22T13:04:36.548Z,24.47
2019-04-22T13:06:30.142Z,24.54
2019-04-22T13:07:29.642Z,24.54
2019-04-22T13:09:23.129Z,24.55
2019-04-22T13:10:24.009Z,24.54
2019-04-22T13:12:17.065Z,24.63
2019-04-22T13:13:15.728Z,24.65
2019-04-22T13:15:09.805Z,24.57
2019-04-22T13:16:09.066Z,24.70
2019-04-22T13:18:11.829Z,24.85
2019-04-22T13:19:05.643Z,24.76
2019-04-22T13:20:54.919Z,24.85
2019-04-22T13:21:54.903Z,24.86
2019-04-22T13:23:48.894Z,24.81
2019-04-22T13:24:48.085Z,24.84
2019-04-22T13:26:41.195Z,24.65
2019-04-22T13:27:42.783Z,24.68
2019-04-22T13:29:34.960Z,24.81
2019-04-22T13:30:34.649Z,24.92
2019-04-22T13:32:27.120Z,24.61
2019-04-22T13:33:28.494Z,24.61
2019-04-22T13:35:22.065Z,24.55
2019-04-22T13:36:23.687Z,24.50
2019-04-22T13:38:13.248Z,24.48
2019-04-22T13:39:13.386Z,24.48
2019-04-22T13:41:20.432Z,24.69
2019-04-22T13:42:11.863Z,24.76
2019-04-22T13:43:59.859Z,24.73
2019-04-22T13:45:00.173Z,24.70
2019-04-22T13:47:11.591Z,24.76
2019-04-22T13:50:34.567Z,24.77
2019-04-22T13:51:15.106Z,24.78
2019-04-22T13:53:23.862Z,24.78
2019-04-22T13:54:12.642Z,24.77
2019-04-22T13:55:59.285Z,24.88
2019-04-22T13:56:51.881Z,24.61
2019-04-22T13:58:42.392Z,24.57
2019-04-22T13:59:33.522Z,24.68
2019-04-22T14:01:18.742Z,24.68
2019-04-22T14:02:18.908Z,24.69
2019-04-22T14:04:12.469Z,24.69
2019-04-22T14:05:12.758Z,24.69
2019-04-22T14:07:05.175Z,24.50
2019-04-22T14:08:06.282Z,24.66
2019-04-22T14:09:58.269Z,24.68
2019-04-22T14:11:09.879Z,24.61
2019-04-22T14:12:50.936Z,24.80
2019-04-22T14:13:52.065Z,24.84
2019-04-22T14:15:43.917Z,24.70
2019-04-22T14:16:44.882Z,24.60
2019-04-22T14:18:37.024Z,24.48
2019-04-22T14:19:36.712Z,24.45
2019-04-22T14:21:30.596Z,24.61
2019-04-22T14:22:30.522Z,24.58
2019-04-22T14:24:23.752Z,24.54
2019-04-22T14:25:22.994Z,24.48
2019-04-22T14:27:27.696Z,24.51
2019-04-22T14:28:17.991Z,24.58
2019-04-22T14:30:10.442Z,24.58
2019-04-22T14:31:08.945Z,24.66
2019-04-22T14:33:02.733Z,24.68
2019-04-22T14:34:05.395Z,24.57
2019-04-22T14:35:56.404Z,24.48
2019-04-22T14:36:55.293Z,24.63
2019-04-22T14:38:50.143Z,24.54
2019-04-22T14:39:48.239Z,24.57
2019-04-22T14:41:58.647Z,24.50
2019-04-22T14:43:04.136Z,24.57
2019-04-22T14:47:51.340Z,24.38
2019-04-22T14:48:49.387Z,24.32
2019-04-22T14:50:42.198Z,24.21
2019-04-22T14:51:39.288Z,24.30
2019-04-22T14:54:28.371Z,24.42
2019-04-22T14:56:06.620Z,24.43
2019-04-22T14:57:07.337Z,24.33
2019-04-22T14:59:00.815Z,24.35
2019-04-22T14:59:59.790Z,24.48
2019-04-22T15:01:53.960Z,24.51
2019-04-22T15:02:52.633Z,24.36
2019-04-22T15:04:45.971Z,24.36
2019-04-22T15:05:46.259Z,24.18
2019-04-22T15:07:39.419Z,24.28
2019-04-22T15:08:39.369Z,24.28
2019-04-22T15:10:31.907Z,24.24
2019-04-22T15:11:43.862Z,24.35
2019-04-22T15:13:25.348Z,24.38
2019-04-22T15:14:25.651Z,24.38
2019-04-22T15:16:18.300Z,24.18
2019-04-22T15:17:18.673Z,24.10
2019-04-22T15:19:11.720Z,24.16
2019-04-22T15:20:11.935Z,24.21
2019-04-22T15:22:05.015Z,24.20
2019-04-22T15:23:04.714Z,24.17
2019-04-22T15:24:58.496Z,24.08
2019-04-22T15:25:57.131Z,24.08
2019-04-22T15:27:51.167Z,24.14
2019-04-22T15:28:51.406Z,24.14
2019-04-22T15:30:43.432Z,24.03
2019-04-22T15:31:43.246Z,24.03
2019-04-22T15:33:37.443Z,23.96
2019-04-22T15:34:36.684Z,23.99
2019-04-22T15:36:30.462Z,23.95
2019-04-22T15:37:30.847Z,23.93
2019-04-22T15:39:23.120Z,23.87
2019-04-22T15:40:22.763Z,23.87
2019-04-22T15:42:22.731Z,23.87
2019-04-22T15:43:16.980Z,23.81
2019-04-22T15:45:09.021Z,23.87
2019-04-22T15:46:09.844Z,23.83
2019-04-22T15:48:02.112Z,23.80
2019-04-22T15:49:02.147Z,23.83
2019-04-22T15:50:54.975Z,23.86
2019-04-22T15:51:57.582Z,23.81
2019-04-22T15:53:47.696Z,23.77
2019-04-22T15:54:51.750Z,23.84
2019-04-22T15:56:41.120Z,23.83
2019-04-22T15:57:41.981Z,23.77
2019-04-22T15:59:52.237Z,23.69
2019-04-22T16:00:44.575Z,23.78
2019-04-22T16:02:27.809Z,23.73
2019-04-22T16:03:26.982Z,23.69
2019-04-22T16:05:20.370Z,23.66
2019-04-22T16:06:20.011Z,23.69
2019-04-22T16:08:13.036Z,23.69
2019-04-22T16:09:13.252Z,23.68
2019-04-22T16:11:06.227Z,23.59
2019-04-22T16:12:16.285Z,23.59
2019-04-22T16:14:00.255Z,23.59
2019-04-22T16:14:59.772Z,23.58
2019-04-22T16:16:52.537Z,23.62
2019-04-22T16:17:53.107Z,23.65
2019-04-22T16:19:46.715Z,23.61
2019-04-22T16:20:46.159Z,23.58
2019-04-22T16:22:39.115Z,23.48
2019-04-22T16:23:38.329Z,23.43
2019-04-22T16:25:31.389Z,23.47
2019-04-22T16:26:32.588Z,23.41
2019-04-22T16:28:25.135Z,23.39
2019-04-22T16:29:25.163Z,23.31
2019-04-22T16:31:17.671Z,23.36
2019-04-22T16:32:19.008Z,23.36
2019-04-22T16:34:11.341Z,23.37
2019-04-22T16:35:10.606Z,23.24
2019-04-22T16:37:04.916Z,23.32
2019-04-22T16:38:04.388Z,23.27
2019-04-22T16:39:56.709Z,23.32
2019-04-22T16:40:56.850Z,23.37
2019-04-22T16:42:55.332Z,23.23
2019-04-22T16:43:50.775Z,23.25
2019-04-22T16:45:43.511Z,23.18
2019-04-22T16:46:43.612Z,23.18
2019-04-22T16:48:35.896Z,23.10
2019-04-22T16:49:37.240Z,23.08
2019-04-22T16:51:29.784Z,23.02
2019-04-22T16:52:30.166Z,23.05
2019-04-22T16:54:22.220Z,23.02
2019-04-22T16:55:23.042Z,23.02
2019-04-22T16:57:15.791Z,22.91
2019-04-22T16:58:15.037Z,22.96
2019-04-22T17:00:08.914Z,22.93
2019-04-22T17:01:08.095Z,22.88
2019-04-22T17:03:02.764Z,22.80
2019-04-22T17:04:01.422Z,22.76
2019-04-22T17:05:54.153Z,22.75
2019-04-22T17:06:55.383Z,22.78
2019-04-22T17:08:48.609Z,22.73
2019-04-22T17:09:47.978Z,22.78
2019-04-22T17:11:40.336Z,22.65
2019-04-22T17:12:48.908Z,22.66
2019-04-22T17:14:41.073Z,22.68
2019-04-22T17:15:33.457Z,22.60
2019-04-22T17:17:26.645Z,22.55
2019-04-22T17:18:27.353Z,22.60
2019-04-22T17:20:20.846Z,22.47
2019-04-22T17:21:19.671Z,22.48
2019-04-22T17:23:13.955Z,22.45
2019-04-22T17:24:13.889Z,22.41
2019-04-22T17:26:08.403Z,22.35
2019-04-22T17:27:06.403Z,22.29
2019-04-22T17:29:02.565Z,22.28
2019-04-22T17:29:58.968Z,22.18
2019-04-22T17:31:58.369Z,22.14
2019-04-22T17:32:52.462Z,22.15
2019-04-22T17:34:45.441Z,22.10
2019-04-22T17:35:47.177Z,21.99
2019-04-22T17:37:39.653Z,22.02
2019-04-22T17:38:48.498Z,22.00
2019-04-22T17:40:49.127Z,21.95
2019-04-22T17:41:50.461Z,21.92
2019-04-22T17:43:53.773Z,21.93
2019-04-22T17:44:54.225Z,21.80
2019-04-22T17:46:32.432Z,21.66
2019-04-22T17:47:30.294Z,21.72
2019-04-22T17:49:37.171Z,21.72
2019-04-22T17:50:36.220Z,21.64
2019-04-22T17:52:25.108Z,21.55
2019-04-22T17:53:27.936Z,21.54
2019-04-22T17:55:21.640Z,21.57
2019-04-22T17:56:20.613Z,21.52
2019-04-22T17:58:16.899Z,21.46
2019-04-22T17:59:19.100Z,21.40
2019-04-22T18:01:07.161Z,21.51
2019-04-22T18:01:56.658Z,21.37
2019-04-22T18:03:42.388Z,21.30
2019-04-22T18:04:42.889Z,21.37
2019-04-22T18:07:00.421Z,21.33
2019-04-22T18:07:52.301Z,21.21
2019-04-22T18:10:14.678Z,21.14
2019-04-22T18:10:43.465Z,21.02
2019-04-22T18:13:40.971Z,20.88
2019-04-22T18:15:29.375Z,20.80
2019-04-22T18:16:34.460Z,20.72
2019-04-22T18:18:27.936Z,20.70
2019-04-22T18:19:21.035Z,20.72
2019-04-22T18:21:09.192Z,20.63
2019-04-22T18:22:10.837Z,20.52
2019-04-22T18:23:55.404Z,20.44
2019-04-22T18:25:00.945Z,20.44
2019-04-22T18:27:18.975Z,20.41
2019-04-22T18:28:07.395Z,20.36
2019-04-22T18:29:52.018Z,20.29
2019-04-22T18:30:48.509Z,20.24
2019-04-22T18:32:45.357Z,20.13
2019-04-22T18:33:43.293Z,20.11
2019-04-22T18:35:33.945Z,20.03
2019-04-22T18:36:37.522Z,19.95
2019-04-22T18:38:42.412Z,20.00
2019-04-22T18:39:36.357Z,19.92
2019-04-22T18:41:23.454Z,19.94
2019-04-22T18:42:23.132Z,19.84
2019-04-22T18:44:23.526Z,19.70
2019-04-22T18:45:37.325Z,19.70
2019-04-22T18:47:10.622Z,19.59
2019-04-22T18:48:05.572Z,19.54
2019-04-22T18:49:59.471Z,19.45
2019-04-22T18:51:13.345Z,19.44
2019-04-22T18:53:03.703Z,19.41
2019-04-22T18:54:01.585Z,19.29
2019-04-22T18:55:49.074Z,19.30
2019-04-22T18:56:46.508Z,19.24
2019-04-22T18:59:31.217Z,19.00
2019-04-22T19:01:17.822Z,18.96
2019-04-22T19:02:22.929Z,18.96
2019-04-22T19:04:17.488Z,18.89
2019-04-22T19:05:22.093Z,18.89
2019-04-22T19:07:32.456Z,18.83
2019-04-22T19:08:38.313Z,18.90
2019-04-22T19:10:32.930Z,18.78
2019-04-22T19:11:17.018Z,18.68
2019-04-22T19:13:45.199Z,18.68
2019-04-22T19:14:12.771Z,18.59
2019-04-22T19:16:21.071Z,18.58
2019-04-22T19:17:12.205Z,18.58
2019-04-22T19:19:17.239Z,18.55
2019-04-22T19:20:05.477Z,18.49
2019-04-22T19:21:49.487Z,18.41
2019-04-22T19:22:55.425Z,18.43
2019-04-22T19:24:39.798Z,18.41
2019-04-22T19:25:40.446Z,18.35
2019-04-22T19:27:39.285Z,18.34
2019-04-22T19:28:40.430Z,18.28
2019-04-22T19:30:33.472Z,18.19
2019-04-22T19:31:28.543Z,18.10
2019-04-22T19:33:27.346Z,18.15
2019-04-22T19:34:20.435Z,18.05
2019-04-22T19:36:14.733Z,18.05
2019-04-22T19:37:13.273Z,18.13
2019-04-22T19:39:04.307Z,18.01
2019-04-22T19:42:09.777Z,18.07
2019-04-22T19:43:02.286Z,17.90
2019-04-22T19:44:56.794Z,17.94
2019-04-22T19:45:55.835Z,17.98
2019-04-22T19:48:15.778Z,17.95
2019-04-22T19:48:50.032Z,17.95
2019-04-22T19:50:45.551Z,17.86
2019-04-22T19:53:35.317Z,17.86
2019-04-22T19:54:30.723Z,17.82
2019-04-22T19:56:21.206Z,17.76
2019-04-22T19:57:21.536Z,17.68
2019-04-22T19:59:12.259Z,17.72
2019-04-22T20:00:14.483Z,17.64
2019-04-22T20:02:07.273Z,17.54
2019-04-22T20:03:23.174Z,17.57
2019-04-22T20:05:12.538Z,17.48
2019-04-22T20:06:06.018Z,17.48
2019-04-22T20:08:03.142Z,17.45
2019-04-22T20:08:59.767Z,17.42
2019-04-22T20:10:53.424Z,17.30
2019-04-22T20:11:54.221Z,17.29
2019-04-22T20:13:47.691Z,17.19
2019-04-22T20:14:45.007Z,17.15
2019-04-22T20:16:35.245Z,17.11
2019-04-22T20:17:52.610Z,17.11
2019-04-22T20:19:39.553Z,17.11
2019-04-22T20:20:31.469Z,17.14
2019-04-22T20:22:28.660Z,17.02
2019-04-22T20:23:20.946Z,16.99
2019-04-22T20:25:07.615Z,16.89
2019-04-22T20:26:15.249Z,16.87
2019-04-22T20:28:12.695Z,16.89
2019-04-22T20:29:15.882Z,16.81
2019-04-22T20:31:03.507Z,16.76
2019-04-22T20:32:05.690Z,16.74